PWSweather.com
Personal Weather Stations
Station Observations
PENICUIKWS
PenicuikGB

PenicuikGB

Lat: 55.830932, Lon: -3.224533000000065

Elevation: 166

Station Type: Fine Offset

http://weather.penicuik.org

High Low Average
Temperature 68.9°F20.5°C 49.8°F9.9°C 57.7°F14.3°C
Dew Point 59.9°F15.5°C 45.4°F7.4°C 52.1°F11.2°C
Winds 7.3 mph 11.7 kmh Calm Calm 3.0 mph SSW4.8 kmh SSW
Wind Gusts 12.1 mph19.5 kmh -- 5.0 mph8.0 kmh
Humidity 98% 52% 83%
Pressure 29.87 in1011.5 mb 29.73 in1006.8 mb -
Precipitation 0.07 in1.8 mm - -
Hour Temp Dew Point Humidity Winds Wind Gusts Pressure Precip Precip Rate Daily Precip Total
12:00 AM 51.6°F10.9°C 50.8°F10.4°C 97% Calm Calm -- 29.82 in1009.8 mb 0.00 in0.0 mm 0.00 in0.0 mm 0.00 in0.0 mm
12:15 AM 52.0°F11.1°C 50.9°F10.5°C 96% Calm Calm -- 29.83 in1010.2 mb 0.00 in0.0 mm 0.00 in0.0 mm 0.00 in0.0 mm
12:30 AM 52.7°F11.5°C 51.9°F11.1°C 97% Calm Calm -- 29.82 in1009.8 mb 0.00 in0.0 mm 0.00 in0.0 mm 0.00 in0.0 mm
12:45 AM 52.9°F11.6°C 52.1°F11.2°C 97% Calm Calm 0.7 mph1.1 kmh 29.81 in1009.5 mb 0.00 in0.0 mm 0.00 in0.0 mm 0.00 in0.0 mm
01:15 AM 53.6°F12.0°C 52.8°F11.6°C 97% Calm Calm -- 29.80 in1009.1 mb 0.00 in0.0 mm 0.00 in0.0 mm 0.00 in0.0 mm
01:30 AM 54.0°F12.2°C 53.1°F11.7°C 97% 1.0 mph NNE1.6 kmh NNE 3.1 mph5.0 kmh 29.80 in1009.1 mb 0.00 in0.0 mm 0.00 in0.0 mm 0.00 in0.0 mm
01:45 AM 55.2°F12.9°C 54.4°F12.4°C 97% 0.4 mph N0.6 kmh N 2.2 mph3.5 kmh 29.80 in1009.1 mb 0.00 in0.0 mm 0.00 in0.0 mm 0.00 in0.0 mm
02:00 AM 56.3°F13.5°C 55.8°F13.2°C 98% 0.6 mph E1.0 kmh E 2.2 mph3.5 kmh 29.79 in1008.8 mb 0.00 in0.0 mm 0.00 in0.0 mm 0.00 in0.0 mm
02:15 AM 56.7°F13.7°C 56.1°F13.4°C 98% 0.3 mph NE0.5 kmh NE 1.6 mph2.6 kmh 29.78 in1008.5 mb 0.00 in0.0 mm 0.00 in0.0 mm 0.00 in0.0 mm
02:30 AM 56.7°F13.7°C 56.1°F13.4°C 98% 0.5 mph NW0.8 kmh NW 3.1 mph5.0 kmh 29.78 in1008.5 mb 0.00 in0.0 mm 0.00 in0.0 mm 0.00 in0.0 mm
02:45 AM 56.7°F13.7°C 56.1°F13.4°C 98% 0.6 mph N1.0 kmh N 2.2 mph3.5 kmh 29.77 in1008.1 mb 0.00 in0.0 mm 0.00 in0.0 mm 0.00 in0.0 mm
03:00 AM 56.8°F13.8°C 56.3°F13.5°C 98% 0.7 mph NNE1.1 kmh NNE 1.6 mph2.6 kmh 29.76 in1007.8 mb 0.00 in0.0 mm 0.00 in0.0 mm 0.00 in0.0 mm
03:30 AM 57.4°F14.1°C 56.5°F13.6°C 97% 1.5 mph NW2.4 kmh NW 3.8 mph6.1 kmh 29.76 in1007.8 mb 0.00 in0.0 mm 0.00 in0.0 mm 0.00 in0.0 mm
03:45 AM 57.7°F14.3°C 56.6°F13.7°C 96% 1.6 mph NE2.6 kmh NE 4.5 mph7.2 kmh 29.75 in1007.5 mb 0.00 in0.0 mm 0.00 in0.0 mm 0.00 in0.0 mm
04:00 AM 57.7°F14.3°C 56.6°F13.7°C 96% 1.7 mph NW2.7 kmh NW 2.2 mph3.5 kmh 29.75 in1007.5 mb 0.00 in0.0 mm 0.00 in0.0 mm 0.00 in0.0 mm
04:15 AM 57.6°F14.2°C 56.4°F13.6°C 96% 1.1 mph N1.8 kmh N 1.6 mph2.6 kmh 29.75 in1007.5 mb 0.00 in0.0 mm 0.00 in0.0 mm 0.00 in0.0 mm
04:30 AM 57.4°F14.1°C 56.3°F13.5°C 96% 0.3 mph WSW0.5 kmh WSW 2.2 mph3.5 kmh 29.75 in1007.5 mb 0.00 in0.0 mm 0.00 in0.0 mm 0.00 in0.0 mm
04:45 AM 57.2°F14.0°C 56.1°F13.4°C 96% 0.3 mph ENE0.5 kmh ENE 1.6 mph2.6 kmh 29.75 in1007.5 mb 0.00 in0.0 mm 0.00 in0.0 mm 0.00 in0.0 mm
05:00 AM 57.0°F13.9°C 56.2°F13.4°C 97% 0.6 mph NNE1.0 kmh NNE 1.6 mph2.6 kmh 29.74 in1007.1 mb 0.00 in0.0 mm 0.00 in0.0 mm 0.00 in0.0 mm
05:15 AM 57.0°F13.9°C 56.2°F13.4°C 97% 1.1 mph W1.8 kmh W 2.2 mph3.5 kmh 29.74 in1007.1 mb 0.00 in0.0 mm 0.00 in0.0 mm 0.00 in0.0 mm
05:30 AM 57.0°F13.9°C 56.2°F13.4°C 97% 1.8 mph N2.9 kmh N 3.1 mph5.0 kmh 29.74 in1007.1 mb 0.00 in0.0 mm 0.00 in0.0 mm 0.00 in0.0 mm
05:45 AM 57.4°F14.1°C 56.5°F13.6°C 97% 1.6 mph N2.6 kmh N 2.2 mph3.5 kmh 29.73 in1006.8 mb 0.00 in0.0 mm 0.00 in0.0 mm 0.00 in0.0 mm
06:00 AM 57.4°F14.1°C 56.5°F13.6°C 97% 2.0 mph NNE3.2 kmh NNE 3.8 mph6.1 kmh 29.74 in1007.1 mb 0.00 in0.0 mm 0.00 in0.0 mm 0.00 in0.0 mm
06:15 AM 57.6°F14.2°C 56.4°F13.6°C 96% 1.6 mph S2.6 kmh S 2.2 mph3.5 kmh 29.74 in1007.1 mb 0.00 in0.0 mm 0.00 in0.0 mm 0.00 in0.0 mm
06:30 AM 57.6°F14.2°C 56.4°F13.6°C 96% 1.3 mph WNW2.1 kmh WNW 2.2 mph3.5 kmh 29.74 in1007.1 mb 0.00 in0.0 mm 0.00 in0.0 mm 0.00 in0.0 mm
07:00 AM 59.5°F15.3°C 58.1°F14.5°C 95% 2.0 mph SSE3.2 kmh SSE 3.1 mph5.0 kmh 29.74 in1007.1 mb 0.01 in0.3 mm 0.02 in0.5 mm 0.01 in0.3 mm
07:15 AM 60.6°F15.9°C 58.6°F14.8°C 93% 3.7 mph WNW6.0 kmh WNW 6.0 mph9.7 kmh 29.74 in1007.1 mb 0.01 in0.3 mm 0.00 in0.0 mm 0.01 in0.3 mm
07:30 AM 60.6°F15.9°C 58.3°F14.6°C 92% 2.9 mph WNW4.7 kmh WNW 4.5 mph7.2 kmh 29.75 in1007.5 mb 0.01 in0.3 mm 0.00 in0.0 mm 0.01 in0.3 mm
07:45 AM 59.9°F15.5°C 57.3°F14.1°C 91% 2.2 mph SSE3.5 kmh SSE 5.4 mph8.7 kmh 29.75 in1007.5 mb 0.02 in0.5 mm 0.04 in1.0 mm 0.04 in1.0 mm
08:00 AM 59.4°F15.2°C 57.0°F13.9°C 92% 1.7 mph S2.7 kmh S 3.8 mph6.1 kmh 29.75 in1007.5 mb 0.04 in1.0 mm 0.03 in0.8 mm 0.05 in1.3 mm
08:15 AM 58.8°F14.9°C 57.1°F13.9°C 94% 1.9 mph NW3.1 kmh NW 3.1 mph5.0 kmh 29.75 in1007.5 mb 0.04 in1.0 mm 0.00 in0.0 mm 0.05 in1.3 mm
08:30 AM 59.7°F15.4°C 57.7°F14.3°C 93% 2.1 mph SW3.4 kmh SW 3.8 mph6.1 kmh 29.75 in1007.5 mb 0.04 in1.0 mm 0.00 in0.0 mm 0.05 in1.3 mm
08:45 AM 61.9°F16.6°C 59.9°F15.5°C 93% 3.2 mph NNW5.1 kmh NNW 4.5 mph7.2 kmh 29.75 in1007.5 mb 0.01 in0.3 mm 0.00 in0.0 mm 0.05 in1.3 mm
09:00 AM 62.4°F16.9°C 59.2°F15.1°C 89% 4.0 mph SSW6.4 kmh SSW 8.3 mph13.4 kmh 29.77 in1008.1 mb 0.00 in0.0 mm 0.00 in0.0 mm 0.05 in1.3 mm
09:15 AM 61.5°F16.4°C 55.0°F12.8°C 79% 4.1 mph S6.6 kmh S 8.3 mph13.4 kmh 29.77 in1008.1 mb 0.00 in0.0 mm 0.00 in0.0 mm 0.05 in1.3 mm
09:30 AM 66.6°F19.2°C 58.0°F14.4°C 74% 4.5 mph SE7.2 kmh SE 6.0 mph9.7 kmh 29.78 in1008.5 mb 0.00 in0.0 mm 0.00 in0.0 mm 0.05 in1.3 mm
09:45 AM 68.9°F20.5°C 55.4°F13.0°C 62% 3.9 mph SW6.3 kmh SW 9.2 mph14.8 kmh 29.78 in1008.5 mb 0.00 in0.0 mm 0.00 in0.0 mm 0.05 in1.3 mm
10:00 AM 60.8°F16.0°C 52.5°F11.4°C 74% 3.2 mph NW5.1 kmh NW 4.5 mph7.2 kmh 29.78 in1008.5 mb 0.00 in0.0 mm 0.00 in0.0 mm 0.05 in1.3 mm
10:15 AM 63.0°F17.2°C 54.2°F12.3°C 73% 4.1 mph SW6.6 kmh SW 8.3 mph13.4 kmh 29.77 in1008.1 mb 0.00 in0.0 mm 0.00 in0.0 mm 0.05 in1.3 mm
11:00 AM 63.9°F17.7°C 52.7°F11.5°C 67% 4.8 mph SE7.7 kmh SE 8.3 mph13.4 kmh 29.78 in1008.5 mb 0.00 in0.0 mm 0.00 in0.0 mm 0.05 in1.3 mm
11:15 AM 67.1°F19.5°C 54.1°F12.3°C 63% 4.5 mph SE7.2 kmh SE 8.3 mph13.4 kmh 29.78 in1008.5 mb 0.00 in0.0 mm 0.00 in0.0 mm 0.05 in1.3 mm
11:30 AM 68.7°F20.4°C 54.3°F12.4°C 60% 3.7 mph SW6.0 kmh SW 5.4 mph8.7 kmh 29.78 in1008.5 mb 0.00 in0.0 mm 0.00 in0.0 mm 0.05 in1.3 mm
11:45 AM 66.2°F19.0°C 52.8°F11.6°C 62% 5.3 mph NW8.5 kmh NW 9.8 mph15.8 kmh 29.79 in1008.8 mb 0.00 in0.0 mm 0.00 in0.0 mm 0.05 in1.3 mm
12:00 PM 65.8°F18.8°C 52.5°F11.4°C 62% 5.5 mph N8.9 kmh N 8.3 mph13.4 kmh 29.79 in1008.8 mb 0.00 in0.0 mm 0.00 in0.0 mm 0.05 in1.3 mm
12:15 PM 66.0°F18.9°C 53.9°F12.2°C 65% 3.1 mph SW5.0 kmh SW 5.4 mph8.7 kmh 29.79 in1008.8 mb 0.00 in0.0 mm 0.00 in0.0 mm 0.05 in1.3 mm
12:30 PM 63.9°F17.7°C 50.2°F10.1°C 61% 4.4 mph N7.1 kmh N 6.0 mph9.7 kmh 29.78 in1008.5 mb 0.00 in0.0 mm 0.00 in0.0 mm 0.05 in1.3 mm
01:00 PM 64.4°F18.0°C 52.4°F11.3°C 65% 4.2 mph SSW6.8 kmh SSW 5.4 mph8.7 kmh 29.79 in1008.8 mb 0.00 in0.0 mm 0.00 in0.0 mm 0.05 in1.3 mm
01:15 PM 67.6°F19.8°C 52.4°F11.3°C 58% 4.2 mph WSW6.8 kmh WSW 10.7 mph17.2 kmh 29.79 in1008.8 mb 0.00 in0.0 mm 0.00 in0.0 mm 0.05 in1.3 mm
01:30 PM 64.8°F18.2°C 51.9°F11.1°C 63% 6.1 mph SW9.8 kmh SW 9.8 mph15.8 kmh 29.81 in1009.5 mb 0.00 in0.0 mm 0.00 in0.0 mm 0.05 in1.3 mm
02:00 PM 64.6°F18.1°C 48.1°F8.9°C 55% 5.1 mph S8.2 kmh S 7.6 mph12.2 kmh 29.80 in1009.1 mb 0.00 in0.0 mm 0.00 in0.0 mm 0.05 in1.3 mm
02:45 PM 66.4°F19.1°C 48.2°F9.0°C 52% 5.5 mph SSW8.9 kmh SSW 9.8 mph15.8 kmh 29.80 in1009.1 mb 0.00 in0.0 mm 0.00 in0.0 mm 0.05 in1.3 mm
03:00 PM 65.5°F18.6°C 47.9°F8.8°C 53% 7.3 mph SSE11.7 kmh SSE 10.7 mph17.2 kmh 29.80 in1009.1 mb 0.00 in0.0 mm 0.00 in0.0 mm 0.05 in1.3 mm
03:15 PM 62.8°F17.1°C 46.4°F8.0°C 55% 4.7 mph NW7.6 kmh NW 6.0 mph9.7 kmh 29.81 in1009.5 mb 0.00 in0.0 mm 0.00 in0.0 mm 0.05 in1.3 mm
03:30 PM 60.8°F16.0°C 47.3°F8.5°C 61% 4.9 mph SW7.9 kmh SW 10.7 mph17.2 kmh 29.82 in1009.8 mb 0.00 in0.0 mm 0.00 in0.0 mm 0.05 in1.3 mm
03:45 PM 58.8°F14.9°C 48.3°F9.1°C 68% 3.6 mph SE5.8 kmh SE 6.9 mph11.1 kmh 29.83 in1010.2 mb 0.00 in0.0 mm 0.00 in0.0 mm 0.05 in1.3 mm
04:00 PM 58.8°F14.9°C 49.1°F9.5°C 70% 3.8 mph S6.1 kmh S 5.4 mph8.7 kmh 29.84 in1010.5 mb 0.00 in0.0 mm 0.00 in0.0 mm 0.05 in1.3 mm
04:15 PM 59.4°F15.2°C 49.2°F9.6°C 69% 4.1 mph SW6.6 kmh SW 5.4 mph8.7 kmh 29.84 in1010.5 mb 0.00 in0.0 mm 0.00 in0.0 mm 0.05 in1.3 mm
04:45 PM 58.1°F14.5°C 48.8°F9.3°C 71% 3.3 mph SSW5.3 kmh SSW 4.5 mph7.2 kmh 29.83 in1010.2 mb 0.00 in0.0 mm 0.00 in0.0 mm 0.05 in1.3 mm
05:00 PM 56.8°F13.8°C 47.9°F8.8°C 72% 4.4 mph WSW7.1 kmh WSW 6.9 mph11.1 kmh 29.83 in1010.2 mb 0.00 in0.0 mm 0.00 in0.0 mm 0.05 in1.3 mm
05:15 PM 56.3°F13.5°C 45.9°F7.7°C 68% 4.1 mph ENE6.6 kmh ENE 7.6 mph12.2 kmh 29.84 in1010.5 mb 0.00 in0.0 mm 0.00 in0.0 mm 0.05 in1.3 mm
05:30 PM 55.8°F13.2°C 45.4°F7.4°C 68% 4.0 mph WSW6.4 kmh WSW 6.0 mph9.7 kmh 29.85 in1010.8 mb 0.00 in0.0 mm 0.00 in0.0 mm 0.05 in1.3 mm
05:45 PM 55.2°F12.9°C 46.0°F7.8°C 71% 2.5 mph NW4.0 kmh NW 3.8 mph6.1 kmh 29.85 in1010.8 mb 0.00 in0.0 mm 0.00 in0.0 mm 0.05 in1.3 mm
06:15 PM 54.3°F12.4°C 46.2°F7.9°C 74% 2.2 mph SW3.5 kmh SW 4.5 mph7.2 kmh 29.85 in1010.8 mb 0.00 in0.0 mm 0.00 in0.0 mm 0.05 in1.3 mm
06:30 PM 53.6°F12.0°C 46.9°F8.3°C 78% 1.9 mph WSW3.1 kmh WSW 3.1 mph5.0 kmh 29.85 in1010.8 mb 0.00 in0.0 mm 0.00 in0.0 mm 0.05 in1.3 mm
06:45 PM 53.1°F11.7°C 47.1°F8.4°C 80% 1.2 mph W1.9 kmh W 3.1 mph5.0 kmh 29.85 in1010.8 mb 0.00 in0.0 mm 0.00 in0.0 mm 0.05 in1.3 mm
07:00 PM 52.2°F11.2°C 46.5°F8.1°C 81% 1.1 mph NW1.8 kmh NW 1.6 mph2.6 kmh 29.86 in1011.2 mb 0.00 in0.0 mm 0.00 in0.0 mm 0.05 in1.3 mm
07:15 PM 52.9°F11.6°C 48.2°F9.0°C 84% 4.2 mph S6.8 kmh S 7.6 mph12.2 kmh 29.87 in1011.5 mb 0.01 in0.3 mm 0.04 in1.0 mm 0.06 in1.5 mm
07:30 PM 51.6°F10.9°C 46.9°F8.3°C 84% 2.4 mph SW3.9 kmh SW 5.4 mph8.7 kmh 29.87 in1011.5 mb 0.02 in0.5 mm 0.04 in1.0 mm 0.07 in1.8 mm
07:45 PM 50.4°F10.2°C 46.6°F8.1°C 87% 1.6 mph W2.6 kmh W 6.0 mph9.7 kmh 29.87 in1011.5 mb 0.02 in0.5 mm 0.00 in0.0 mm 0.07 in1.8 mm
08:00 PM 49.8°F9.9°C 47.3°F8.5°C 91% 2.0 mph SW3.2 kmh SW 3.8 mph6.1 kmh 29.87 in1011.5 mb 0.02 in0.5 mm 0.00 in0.0 mm 0.07 in1.8 mm
08:15 PM 50.5°F10.3°C 48.3°F9.1°C 92% 2.9 mph NW4.7 kmh NW 3.8 mph6.1 kmh 29.86 in1011.2 mb 0.01 in0.3 mm 0.00 in0.0 mm 0.07 in1.8 mm
08:30 PM 50.4°F10.2°C 48.4°F9.1°C 93% 2.5 mph WNW4.0 kmh WNW 3.8 mph6.1 kmh 29.85 in1010.8 mb 0.00 in0.0 mm 0.00 in0.0 mm 0.07 in1.8 mm
08:45 PM 50.4°F10.2°C 48.4°F9.1°C 93% 3.2 mph ESE5.1 kmh ESE 6.0 mph9.7 kmh 29.85 in1010.8 mb 0.00 in0.0 mm 0.00 in0.0 mm 0.07 in1.8 mm
09:45 PM 50.5°F10.3°C 48.3°F9.1°C 92% 3.1 mph N5.0 kmh N 4.5 mph7.2 kmh 29.84 in1010.5 mb 0.00 in0.0 mm 0.00 in0.0 mm 0.07 in1.8 mm
10:00 PM 50.5°F10.3°C 48.0°F8.9°C 91% 3.4 mph WSW5.5 kmh WSW 5.4 mph8.7 kmh 29.84 in1010.5 mb 0.00 in0.0 mm 0.00 in0.0 mm 0.07 in1.8 mm
10:15 PM 50.5°F10.3°C 48.0°F8.9°C 91% 3.3 mph WSW5.3 kmh WSW 4.5 mph7.2 kmh 29.84 in1010.5 mb 0.00 in0.0 mm 0.00 in0.0 mm 0.07 in1.8 mm
10:30 PM 51.4°F10.8°C 48.6°F9.2°C 90% 5.1 mph WSW8.2 kmh WSW 6.9 mph11.1 kmh 29.85 in1010.8 mb 0.00 in0.0 mm 0.00 in0.0 mm 0.07 in1.8 mm
10:45 PM 51.4°F10.8°C 47.7°F8.7°C 87% 3.6 mph NNE5.8 kmh NNE 5.4 mph8.7 kmh 29.84 in1010.5 mb 0.00 in0.0 mm 0.00 in0.0 mm 0.07 in1.8 mm
11:00 PM 51.4°F10.8°C 47.7°F8.7°C 87% 5.3 mph SW8.5 kmh SW 9.2 mph14.8 kmh 29.85 in1010.8 mb 0.00 in0.0 mm 0.00 in0.0 mm 0.06 in1.5 mm
11:15 PM 51.4°F10.8°C 48.0°F8.9°C 88% 5.3 mph ESE8.5 kmh ESE 8.3 mph13.4 kmh 29.85 in1010.8 mb 0.00 in0.0 mm 0.00 in0.0 mm 0.06 in1.5 mm
11:30 PM 51.6°F10.9°C 48.2°F9.0°C 88% 4.0 mph WSW6.4 kmh WSW 6.9 mph11.1 kmh 29.85 in1010.8 mb 0.00 in0.0 mm 0.00 in0.0 mm 0.06 in1.5 mm
11:45 PM 52.0°F11.1°C 47.6°F8.7°C 85% 5.8 mph NNW9.3 kmh NNW 12.1 mph19.5 kmh 29.86 in1011.2 mb 0.00 in0.0 mm 0.00 in0.0 mm 0.06 in1.5 mm